Time;durP1;ratioP1;P1;durP2;ratioP2;P2;SDS_P1;SDS_P2;PMS_P1;PMS_P2;Temp;Humidity;BMP_temperature;BMP_pressure;BME280_temperature;BME280_humidity;BME280_pressure;Samples;Min_cycle;Max_cycle;Signal;HPM_P1;HPM_P2
2023/08/18 00:00:50;;;;;;;9.47;5.50;;;19.30;99.90;;;;;;5087035;28;20502;-77
2023/08/18 00:03:16;;;;;;;5.37;4.90;;;19.20;99.90;;;;;;5085646;28;20878;-76
2023/08/18 00:05:45;;;;;;;4.77;4.37;;;19.20;99.90;;;;;;5079732;28;20447;-75
2023/08/18 00:08:12;;;;;;;7.27;6.67;;;19.20;99.90;;;;;;5083679;28;20454;-80
2023/08/18 00:10:39;;;;;;;7.33;6.10;;;19.20;99.90;;;;;;5086881;28;20540;-76
2023/08/18 00:13:06;;;;;;;5.40;4.90;;;19.30;99.90;;;;;;5074786;28;20459;-75
2023/08/18 00:15:32;;;;;;;3.90;3.60;;;19.40;99.90;;;;;;5084218;28;20462;-79
2023/08/18 00:17:59;;;;;;;6.43;5.93;;;19.40;99.90;;;;;;5078203;28;20947;-76
2023/08/18 00:20:26;;;;;;;5.93;5.20;;;19.30;99.90;;;;;;5086285;28;20518;-76
2023/08/18 00:22:55;;;;;;;5.67;5.10;;;19.30;99.90;;;;;;5080622;28;20469;-76
2023/08/18 00:25:21;;;;;;;3.83;3.53;;;19.20;99.90;;;;;;5074126;28;20460;-76
2023/08/18 00:27:48;;;;;;;4.97;4.57;;;19.20;99.90;;;;;;5081767;28;20541;-76
2023/08/18 00:30:15;;;;;;;5.60;5.20;;;19.20;99.90;;;;;;5084154;28;20543;-76
2023/08/18 00:32:42;;;;;;;5.30;4.90;;;19.10;99.90;;;;;;5086546;28;20976;-78
2023/08/18 00:35:09;;;;;;;4.87;4.47;;;19.10;99.90;;;;;;5096088;28;20446;-76
2023/08/18 00:37:36;;;;;;;4.73;4.33;;;19.10;99.90;;;;;;5088022;28;20455;-78
2023/08/18 00:40:06;;;;;;;4.30;4.00;;;19.10;99.90;;;;;;5090342;28;21084;-77
2023/08/18 00:42:33;;;;;;;4.77;3.33;;;19.00;99.90;;;;;;5084870;28;20526;-76
2023/08/18 00:45:00;;;;;;;4.13;3.80;;;19.00;99.90;;;;;;5079690;28;20466;-76
2023/08/18 00:47:28;;;;;;;3.93;3.50;;;19.00;99.90;;;;;;5083571;28;20488;-76
2023/08/18 00:49:56;;;;;;;4.03;3.27;;;19.00;99.90;;;;;;5086446;28;20504;-79
2023/08/18 00:52:24;;;;;;;3.67;3.37;;;19.00;99.90;;;;;;5080691;28;20472;-76
2023/08/18 00:54:53;;;;;;;3.57;3.20;;;18.90;99.90;;;;;;5086028;28;20542;-78
2023/08/18 00:57:22;;;;;;;3.20;3.00;;;18.90;99.90;;;;;;5083849;28;20545;-77
2023/08/18 00:59:50;;;;;;;3.60;3.17;;;18.90;99.90;;;;;;5085254;28;20586;-78
2023/08/18 01:02:17;;;;;;;4.03;3.63;;;18.90;99.90;;;;;;5084232;28;20525;-79
2023/08/18 01:04:45;;;;;;;3.40;3.13;;;18.90;99.90;;;;;;5073439;28;20513;-80
2023/08/18 01:07:12;;;;;;;3.77;3.57;;;18.90;99.90;;;;;;5073935;28;20501;-78
2023/08/18 01:09:40;;;;;;;3.43;3.13;;;18.90;99.90;;;;;;5085974;28;20458;-76
2023/08/18 01:12:16;;;;;;;3.60;3.03;;;18.90;99.90;;;;;;5086365;28;20434;-79
2023/08/18 01:14:58;;;;;;;3.00;2.80;;;18.80;99.90;;;;;;5078310;28;20969;-76
2023/08/18 01:17:31;;;;;;;3.33;3.03;;;18.80;99.90;;;;;;5086122;28;20496;-79
2023/08/18 01:19:59;;;;;;;4.10;3.70;;;18.80;99.90;;;;;;5077082;28;20915;-77
2023/08/18 01:22:26;;;;;;;3.50;3.17;;;18.70;99.90;;;;;;5086028;28;20534;-77
2023/08/18 01:25:00;;;;;;;3.40;3.20;;;18.70;99.90;;;;;;5085223;28;20507;-76
2023/08/18 01:27:28;;;;;;;4.60;3.10;;;18.70;99.90;;;;;;5069009;28;20492;-76
2023/08/18 01:29:55;;;;;;;5.10;4.50;;;18.70;99.90;;;;;;5085393;28;20486;-76
2023/08/18 01:32:24;;;;;;;3.07;2.87;;;18.70;99.90;;;;;;5083326;28;20544;-76
2023/08/18 01:34:53;;;;;;;3.33;3.13;;;18.70;99.90;;;;;;5073899;28;20463;-79
2023/08/18 01:37:21;;;;;;;3.97;3.77;;;18.60;99.90;;;;;;5083726;28;20934;-76
2023/08/18 01:39:51;;;;;;;3.60;3.30;;;18.60;99.90;;;;;;5074444;28;20878;-79
2023/08/18 01:42:20;;;;;;;4.73;3.87;;;18.50;99.90;;;;;;5077963;28;20443;-76
2023/08/18 01:44:47;;;;;;;2.80;2.60;;;18.50;99.90;;;;;;5082903;28;20838;-76
2023/08/18 01:47:14;;;;;;;5.10;4.60;;;18.50;99.90;;;;;;5086169;28;20534;-79
2023/08/18 01:49:41;;;;;;;2.70;2.50;;;18.50;99.90;;;;;;5078701;28;20474;-76
2023/08/18 01:52:08;;;;;;;3.83;3.20;;;18.50;99.90;;;;;;5084566;28;20468;-78
2023/08/18 01:54:35;;;;;;;3.80;3.50;;;18.50;99.90;;;;;;5077176;28;20458;-81
2023/08/18 01:57:02;;;;;;;4.30;3.40;;;18.50;99.90;;;;;;5087162;28;20512;-77
2023/08/18 01:59:30;;;;;;;3.60;3.40;;;18.60;99.90;;;;;;5088320;28;20467;-76
2023/08/18 02:01:57;;;;;;;3.30;3.00;;;18.60;99.90;;;;;;5089156;28;20548;-77
2023/08/18 02:04:24;;;;;;;2.90;2.70;;;18.70;99.90;;;;;;5088134;28;20465;-78
2023/08/18 02:06:51;;;;;;;3.63;3.33;;;18.80;99.90;;;;;;5074210;28;20529;-77
2023/08/18 02:09:19;;;;;;;3.33;2.47;;;18.80;99.90;;;;;;5082914;28;20504;-79
2023/08/18 02:11:46;;;;;;;4.23;3.80;;;18.70;99.90;;;;;;5085308;28;20474;-77
2023/08/18 02:14:13;;;;;;;4.43;4.10;;;18.60;99.90;;;;;;5081231;28;20546;-76
2023/08/18 02:16:42;;;;;;;2.47;2.30;;;18.50;99.90;;;;;;5083824;28;20439;-79
2023/08/18 02:19:09;;;;;;;3.67;2.63;;;18.50;99.90;;;;;;5074959;28;20535;-81
2023/08/18 02:21:36;;;;;;;3.17;2.97;;;18.50;99.90;;;;;;5076008;28;20518;-76
2023/08/18 02:24:04;;;;;;;3.97;3.63;;;18.60;99.90;;;;;;5078617;28;20459;-79
2023/08/18 02:26:31;;;;;;;2.80;2.40;;;18.60;99.90;;;;;;5071226;28;20439;-79
2023/08/18 02:28:58;;;;;;;3.40;3.10;;;18.50;99.90;;;;;;5065838;28;20478;-76
2023/08/18 02:31:25;;;;;;;4.00;2.90;;;18.50;99.90;;;;;;5068507;28;20927;-76
2023/08/18 02:33:53;;;;;;;4.30;3.90;;;18.40;99.90;;;;;;5084687;28;20945;-81
2023/08/18 02:36:20;;;;;;;4.50;3.23;;;18.40;99.90;;;;;;5083123;28;21094;-77
2023/08/18 02:38:47;;;;;;;3.20;2.97;;;18.40;99.90;;;;;;5078273;28;20443;-76
2023/08/18 02:41:14;;;;;;;3.17;2.97;;;18.30;99.90;;;;;;5083548;28;20520;-79
2023/08/18 02:43:42;;;;;;;3.20;3.00;;;18.20;99.90;;;;;;5083566;28;20462;-77
2023/08/18 02:46:09;;;;;;;3.43;3.13;;;18.10;99.90;;;;;;5081330;28;20494;-79
2023/08/18 02:48:36;;;;;;;3.67;3.40;;;18.20;99.90;;;;;;5083686;28;20505;-79
2023/08/18 02:51:05;;;;;;;3.80;2.93;;;18.20;99.90;;;;;;5085964;28;20487;-76
2023/08/18 02:53:32;;;;;;;3.27;2.97;;;18.00;99.90;;;;;;5081038;28;20490;-79
2023/08/18 02:55:59;;;;;;;3.20;2.90;;;17.80;99.90;;;;;;5088723;28;20465;-79
2023/08/18 02:58:28;;;;;;;4.20;3.40;;;17.70;99.90;;;;;;5086935;28;20558;-77
2023/08/18 03:00:55;;;;;;;3.20;2.90;;;17.70;99.90;;;;;;5082509;28;21031;-79
2023/08/18 03:03:23;;;;;;;3.90;3.60;;;17.80;99.90;;;;;;5083518;28;20512;-77
2023/08/18 03:05:51;;;;;;;3.53;3.30;;;17.90;99.90;;;;;;5082350;28;20467;-76
2023/08/18 03:08:19;;;;;;;6.03;4.13;;;17.90;99.90;;;;;;5086216;28;20528;-79
2023/08/18 03:10:55;;;;;;;3.97;3.67;;;17.90;99.90;;;;;;5074324;28;20547;-79
2023/08/18 03:13:22;;;;;;;3.30;3.03;;;17.90;99.90;;;;;;5072563;28;20447;-76
2023/08/18 03:15:49;;;;;;;2.63;2.47;;;17.80;99.90;;;;;;5074717;28;20497;-77
2023/08/18 03:18:16;;;;;;;3.07;2.87;;;17.80;99.90;;;;;;5079927;28;20445;-77
2023/08/18 03:20:44;;;;;;;3.80;3.50;;;17.80;99.90;;;;;;5086523;28;20505;-77
2023/08/18 03:23:14;;;;;;;5.87;4.57;;;17.70;99.90;;;;;;5089330;28;20482;-76
2023/08/18 03:25:42;;;;;;;4.10;3.07;;;17.70;99.90;;;;;;5076192;28;20459;-76
2023/08/18 03:28:09;;;;;;;5.33;3.53;;;17.60;99.90;;;;;;5071770;28;20447;-77
2023/08/18 03:30:37;;;;;;;6.13;4.17;;;17.70;99.90;;;;;;5081358;28;20474;-77
2023/08/18 03:33:04;;;;;;;5.10;4.27;;;17.70;99.90;;;;;;5081602;28;20842;-75
2023/08/18 03:35:32;;;;;;;4.13;3.83;;;17.70;99.90;;;;;;5087731;28;20443;-78
2023/08/18 03:37:59;;;;;;;4.63;4.20;;;17.80;99.90;;;;;;5086564;28;20445;-77
2023/08/18 03:40:26;;;;;;;4.20;3.90;;;17.80;99.90;;;;;;5086743;28;20585;-79
2023/08/18 03:42:54;;;;;;;4.60;4.20;;;17.70;99.90;;;;;;5080714;28;21274;-76
2023/08/18 03:45:21;;;;;;;6.00;4.50;;;17.80;99.90;;;;;;5078085;28;20867;-76
2023/08/18 03:47:48;;;;;;;3.93;3.27;;;17.60;99.90;;;;;;5083932;28;20464;-76
2023/08/18 03:50:15;;;;;;;4.60;4.20;;;17.50;99.90;;;;;;5086257;28;20959;-76
2023/08/18 03:52:42;;;;;;;4.77;3.97;;;17.60;99.90;;;;;;5085469;28;20553;-78
2023/08/18 03:55:10;;;;;;;4.60;4.10;;;17.50;99.90;;;;;;5086962;28;20462;-79
2023/08/18 03:57:37;;;;;;;5.33;3.33;;;17.60;99.90;;;;;;5086970;28;21175;-75
2023/08/18 04:00:09;;;;;;;4.93;4.50;;;17.50;99.90;;;;;;5079754;28;20565;-76
2023/08/18 04:02:36;;;;;;;7.03;4.10;;;17.50;99.90;;;;;;5078008;28;20530;-80
2023/08/18 04:05:03;;;;;;;3.70;3.30;;;17.50;99.90;;;;;;5081880;28;20971;-76
2023/08/18 04:07:31;;;;;;;3.67;3.37;;;17.50;99.90;;;;;;5075859;28;21006;-78
2023/08/18 04:09:58;;;;;;;3.70;3.17;;;17.60;99.90;;;;;;5087129;28;20538;-76
2023/08/18 04:12:25;;;;;;;5.07;3.77;;;17.60;99.90;;;;;;5082004;28;20447;-76
2023/08/18 04:14:51;;;;;;;4.20;3.90;;;17.70;99.90;;;;;;5079248;28;20458;-77
2023/08/18 04:17:20;;;;;;;4.57;4.17;;;17.70;99.90;;;;;;5084881;28;20498;-76
2023/08/18 04:19:47;;;;;;;4.20;3.80;;;17.70;99.90;;;;;;5087029;28;21024;-76
2023/08/18 04:22:14;;;;;;;8.00;5.23;;;17.70;99.90;;;;;;5086481;28;20521;-76
2023/08/18 04:24:41;;;;;;;4.03;3.73;;;17.80;99.90;;;;;;5074891;28;20499;-80
2023/08/18 04:27:08;;;;;;;5.33;4.90;;;17.80;99.90;;;;;;5081389;28;21268;-78
2023/08/18 04:29:35;;;;;;;4.60;4.30;;;18.00;99.90;;;;;;5078085;28;20503;-77
2023/08/18 04:32:02;;;;;;;5.43;3.80;;;18.00;99.90;;;;;;5081522;28;20465;-79
2023/08/18 04:34:31;;;;;;;4.40;4.10;;;18.10;99.90;;;;;;5088430;28;20962;-78
2023/08/18 04:36:58;;;;;;;4.47;3.73;;;18.30;99.90;;;;;;5085892;28;20486;-79
2023/08/18 04:39:24;;;;;;;5.30;4.73;;;18.30;99.90;;;;;;5082871;28;20492;-75
2023/08/18 04:41:51;;;;;;;4.67;4.27;;;18.30;99.90;;;;;;5072203;28;20545;-76
2023/08/18 04:44:19;;;;;;;4.77;4.37;;;18.20;99.90;;;;;;5087305;28;20680;-80
2023/08/18 04:46:45;;;;;;;4.87;4.50;;;18.30;99.90;;;;;;5093422;28;20451;-79
2023/08/18 04:49:12;;;;;;;7.30;4.27;;;18.40;99.90;;;;;;5086192;28;20499;-78
2023/08/18 04:51:41;;;;;;;5.70;4.57;;;18.40;99.90;;;;;;5082835;28;20582;-79
2023/08/18 04:54:08;;;;;;;4.97;4.57;;;18.40;99.90;;;;;;5075682;28;21014;-77
2023/08/18 04:56:35;;;;;;;6.93;5.37;;;18.40;99.90;;;;;;5085866;28;20471;-77
2023/08/18 04:59:02;;;;;;;5.03;4.60;;;18.40;99.90;;;;;;5082851;28;20451;-77
2023/08/18 05:01:29;;;;;;;6.90;4.43;;;18.40;99.90;;;;;;5084531;28;20914;-74
2023/08/18 05:03:57;;;;;;;5.03;4.63;;;18.50;99.90;;;;;;5074128;28;20469;-78
2023/08/18 05:06:24;;;;;;;5.53;5.03;;;18.50;99.90;;;;;;5073472;28;20455;-77
2023/08/18 05:08:53;;;;;;;6.40;4.80;;;18.70;99.90;;;;;;5079200;28;20444;-78
2023/08/18 05:11:21;;;;;;;5.90;5.40;;;18.90;99.90;;;;;;5073506;28;20946;-79
2023/08/18 05:13:48;;;;;;;5.60;5.10;;;19.00;99.90;;;;;;5075018;28;20558;-78
2023/08/18 05:16:15;;;;;;;4.80;4.40;;;19.00;99.90;;;;;;5072377;28;20652;-79
2023/08/18 05:18:42;;;;;;;4.80;4.30;;;19.10;99.90;;;;;;5077855;28;20447;-82
2023/08/18 05:21:09;;;;;;;7.10;4.20;;;19.20;99.90;;;;;;5077888;28;20532;-78
2023/08/18 05:23:36;;;;;;;5.07;4.67;;;19.40;99.90;;;;;;5073695;28;20451;-77
2023/08/18 05:26:04;;;;;;;5.37;4.97;;;19.50;99.90;;;;;;5072663;28;20478;-78
2023/08/18 05:28:32;;;;;;;5.47;5.03;;;19.60;99.90;;;;;;5071709;28;20456;-77
2023/08/18 05:30:59;;;;;;;3.60;3.30;;;19.70;99.90;;;;;;5070474;28;20589;-80
2023/08/18 05:33:26;;;;;;;3.90;3.60;;;19.80;99.90;;;;;;5082392;28;20440;-77
2023/08/18 05:35:54;;;;;;;4.27;3.90;;;20.00;99.90;;;;;;5081828;28;20446;-76
2023/08/18 05:38:21;;;;;;;4.00;3.60;;;20.20;99.90;;;;;;5081284;28;20571;-77
2023/08/18 05:40:49;;;;;;;5.17;4.67;;;20.10;99.90;;;;;;5069758;28;20507;-86
2023/08/18 05:43:19;;;;;;;4.60;4.20;;;20.20;99.90;;;;;;5072422;28;20439;-76
2023/08/18 05:45:47;;;;;;;4.43;4.17;;;20.50;99.90;;;;;;5073553;28;20467;-76
2023/08/18 05:48:14;;;;;;;4.50;3.77;;;20.70;99.90;;;;;;5077877;28;20490;-75
2023/08/18 05:50:42;;;;;;;5.90;4.20;;;20.70;99.90;;;;;;5074733;28;21037;-76
2023/08/18 05:53:08;;;;;;;4.53;3.60;;;20.90;99.90;;;;;;5084104;28;20465;-75
2023/08/18 05:55:35;;;;;;;3.57;3.30;;;21.20;99.90;;;;;;5085207;28;20500;-78
2023/08/18 05:58:04;;;;;;;3.93;3.63;;;21.20;99.90;;;;;;5073221;28;20556;-75
2023/08/18 06:00:33;;;;;;;4.57;3.63;;;21.30;99.90;;;;;;5073165;28;20503;-80
2023/08/18 06:03:00;;;;;;;4.00;3.03;;;21.20;99.90;;;;;;5069390;28;20558;-76
2023/08/18 06:05:28;;;;;;;5.30;4.80;;;21.40;99.90;;;;;;5071948;28;20530;-75
2023/08/18 06:07:55;;;;;;;4.20;3.80;;;21.40;99.90;;;;;;5090550;28;20942;-76
2023/08/18 06:10:22;;;;;;;3.27;2.90;;;21.50;99.90;;;;;;5082047;28;20443;-75
2023/08/18 06:12:50;;;;;;;4.67;4.27;;;21.70;99.90;;;;;;5074859;28;20872;-75
2023/08/18 06:15:17;;;;;;;3.93;3.53;;;21.90;99.90;;;;;;5075368;28;20466;-78
2023/08/18 06:17:45;;;;;;;3.40;3.07;;;22.20;99.90;;;;;;5075796;28;20483;-75
2023/08/18 06:20:12;;;;;;;4.77;4.37;;;22.10;99.90;;;;;;5078216;28;20511;-75
2023/08/18 06:22:39;;;;;;;4.00;3.70;;;22.20;99.90;;;;;;5076074;28;20519;-77
2023/08/18 06:25:08;;;;;;;4.20;3.70;;;22.20;99.90;;;;;;5080682;28;20494;-76
2023/08/18 06:27:36;;;;;;;4.13;3.83;;;22.20;99.90;;;;;;5071852;28;21001;-77
2023/08/18 06:30:03;;;;;;;5.23;3.67;;;22.40;99.90;;;;;;5083637;28;20535;-79
2023/08/18 06:32:30;;;;;;;3.87;3.57;;;22.30;99.90;;;;;;5077569;28;20535;-80
2023/08/18 06:34:58;;;;;;;5.70;3.33;;;22.10;99.90;;;;;;5073374;28;20979;-76
2023/08/18 06:37:26;;;;;;;2.90;2.67;;;22.30;99.90;;;;;;5082891;28;20575;-76
2023/08/18 06:39:53;;;;;;;8.23;3.63;;;22.20;99.90;;;;;;5080402;28;20563;-78
2023/08/18 06:42:20;;;;;;;4.23;3.93;;;22.20;99.90;;;;;;5078471;28;20487;-77
2023/08/18 06:44:47;;;;;;;9.70;4.00;;;22.30;99.90;;;;;;5082376;28;21272;-77
2023/08/18 06:47:14;;;;;;;6.60;4.00;;;22.40;99.90;;;;;;5075591;28;20456;-79
2023/08/18 06:49:41;;;;;;;3.13;2.83;;;22.60;99.90;;;;;;5074715;28;20450;-76
2023/08/18 06:52:09;;;;;;;3.17;2.93;;;22.90;99.90;;;;;;5071401;28;20469;-76
2023/08/18 06:54:37;;;;;;;4.40;4.10;;;23.10;99.90;;;;;;5073417;28;20490;-79
2023/08/18 06:57:04;;;;;;;3.50;3.20;;;23.10;99.90;;;;;;5071429;28;20495;-76
2023/08/18 06:59:31;;;;;;;7.03;3.27;;;23.00;99.90;;;;;;5071130;28;20513;-80
2023/08/18 07:01:58;;;;;;;4.50;4.03;;;23.00;99.90;;;;;;5077176;28;20583;-76
2023/08/18 07:04:25;;;;;;;3.63;3.43;;;23.00;99.90;;;;;;5067508;28;20513;-76
2023/08/18 07:06:52;;;;;;;2.70;2.50;;;23.20;99.90;;;;;;5074581;28;20956;-76
2023/08/18 07:09:20;;;;;;;2.70;2.50;;;23.10;99.90;;;;;;5084159;28;20531;-75
2023/08/18 07:11:47;;;;;;;2.87;2.67;;;23.40;99.90;;;;;;5082571;28;20567;-75
2023/08/18 07:14:14;;;;;;;3.00;2.80;;;23.80;99.90;;;;;;5076462;28;20508;-78
2023/08/18 07:16:41;;;;;;;2.40;2.20;;;23.70;99.90;;;;;;5077685;28;20444;-78
2023/08/18 07:19:08;;;;;;;7.40;3.43;;;23.70;99.90;;;;;;5074337;28;20505;-76
2023/08/18 07:21:35;;;;;;;3.87;2.30;;;23.60;99.90;;;;;;5082087;28;20594;-75
2023/08/18 07:24:03;;;;;;;3.07;2.23;;;23.70;99.90;;;;;;5076610;28;20524;-79
2023/08/18 07:26:31;;;;;;;2.70;2.50;;;23.80;99.90;;;;;;5073356;28;20452;-80
2023/08/18 07:28:58;;;;;;;3.57;3.37;;;23.70;99.90;;;;;;5075347;28;20498;-79
2023/08/18 07:31:25;;;;;;;2.60;2.40;;;23.40;99.90;;;;;;5079006;28;20467;-76
2023/08/18 07:33:53;;;;;;;3.23;2.87;;;23.40;99.90;;;;;;5094804;28;20447;-75
2023/08/18 07:36:20;;;;;;;2.23;2.03;;;23.40;99.90;;;;;;5093669;28;20750;-75
2023/08/18 07:38:47;;;;;;;3.50;3.20;;;23.50;99.90;;;;;;5087224;28;20467;-74
2023/08/18 07:41:14;;;;;;;5.33;3.10;;;23.90;99.90;;;;;;5087698;28;20524;-75
2023/08/18 07:43:42;;;;;;;2.80;2.70;;;23.90;99.90;;;;;;5087314;28;20443;-75
2023/08/18 07:46:10;;;;;;;3.93;3.40;;;23.80;99.90;;;;;;5081481;28;21042;-75
2023/08/18 07:48:38;;;;;;;2.90;2.70;;;23.90;99.90;;;;;;5087442;28;20960;-77
2023/08/18 07:51:05;;;;;;;3.03;2.60;;;23.80;99.90;;;;;;5085810;28;20451;-79
2023/08/18 07:53:32;;;;;;;6.10;3.40;;;23.70;99.90;;;;;;5085969;28;20521;-75
2023/08/18 07:55:59;;;;;;;2.50;2.30;;;23.60;99.90;;;;;;5079290;28;20537;-75
2023/08/18 07:58:26;;;;;;;3.43;3.17;;;23.80;99.90;;;;;;5078131;28;20521;-76
2023/08/18 08:00:56;;;;;;;3.67;3.37;;;23.90;99.90;;;;;;5086840;28;20536;-79
2023/08/18 08:03:23;;;;;;;2.60;2.40;;;23.70;99.90;;;;;;5087316;28;20489;-76
2023/08/18 08:05:51;;;;;;;3.20;2.90;;;23.80;99.90;;;;;;5077719;28;20527;-75
2023/08/18 08:08:17;;;;;;;3.70;3.40;;;24.00;99.90;;;;;;5082974;28;20500;-75
2023/08/18 08:10:44;;;;;;;3.40;3.20;;;23.90;99.90;;;;;;5083677;28;20440;-77
2023/08/18 08:13:11;;;;;;;4.07;3.67;;;24.10;99.90;;;;;;5077319;28;20462;-76
2023/08/18 08:15:38;;;;;;;3.10;2.90;;;24.20;99.90;;;;;;5085000;28;20543;-75
2023/08/18 08:18:07;;;;;;;3.43;3.13;;;24.20;99.90;;;;;;5082665;28;20477;-75
2023/08/18 08:20:34;;;;;;;4.63;3.77;;;24.40;99.90;;;;;;5085054;28;20479;-75
2023/08/18 08:23:01;;;;;;;3.53;3.27;;;24.40;99.90;;;;;;5079177;28;20484;-78
2023/08/18 08:25:28;;;;;;;2.80;2.60;;;24.20;99.90;;;;;;5085180;28;20919;-75
2023/08/18 08:27:55;;;;;;;5.30;3.37;;;24.70;99.90;;;;;;5076182;28;20447;-76
2023/08/18 08:30:22;;;;;;;3.40;3.13;;;24.90;99.90;;;;;;5085577;28;20551;-75
2023/08/18 08:32:49;;;;;;;3.23;3.03;;;25.20;99.90;;;;;;5085676;28;20479;-78
2023/08/18 08:35:18;;;;;;;3.10;2.80;;;25.30;99.90;;;;;;5082987;28;20439;-75
2023/08/18 08:37:45;;;;;;;2.80;2.60;;;25.30;99.90;;;;;;5086399;28;20447;-75
2023/08/18 08:40:18;;;;;;;2.30;2.17;;;25.70;99.90;;;;;;5075339;28;21289;-75
2023/08/18 08:42:45;;;;;;;2.63;2.50;;;25.70;99.90;;;;;;5074587;28;20493;-80
2023/08/18 08:45:13;;;;;;;3.80;2.80;;;25.80;99.90;;;;;;5074310;28;20467;-75
2023/08/18 08:47:43;;;;;;;2.97;2.77;;;25.50;99.90;;;;;;5085369;28;20513;-77
2023/08/18 08:50:12;;;;;;;2.90;2.80;;;25.70;99.90;;;;;;5086264;28;21025;-76
2023/08/18 08:52:42;;;;;;;2.50;2.40;;;25.40;99.90;;;;;;5085422;28;20478;-76
2023/08/18 08:55:09;;;;;;;2.40;2.20;;;25.50;99.90;;;;;;5082894;28;20768;-74
2023/08/18 08:57:36;;;;;;;1.83;1.73;;;25.70;99.90;;;;;;5094135;28;20459;-76
2023/08/18 09:00:04;;;;;;;2.03;1.87;;;26.00;99.90;;;;;;5086786;28;20482;-78
2023/08/18 09:02:31;;;;;;;2.80;2.17;;;26.10;99.90;;;;;;5076686;28;21404;-80
2023/08/18 09:05:00;;;;;;;2.67;2.47;;;26.20;99.90;;;;;;5077505;28;20463;-76
2023/08/18 09:07:28;;;;;;;2.70;2.60;;;26.10;99.90;;;;;;5084373;28;21013;-75
2023/08/18 09:09:57;;;;;;;3.93;1.80;;;26.00;99.90;;;;;;5083817;28;20463;-77
2023/08/18 09:12:28;;;;;;;2.33;2.13;;;26.10;99.90;;;;;;5085350;28;20543;-77
2023/08/18 09:14:55;;;;;;;2.87;2.60;;;26.10;99.90;;;;;;5085290;28;20530;-82
2023/08/18 09:17:22;;;;;;;2.30;2.20;;;26.20;99.90;;;;;;5078831;28;20470;-78
2023/08/18 09:19:49;;;;;;;2.67;2.57;;;26.60;99.90;;;;;;5086262;28;20518;-78
2023/08/18 09:22:21;;;;;;;4.40;2.50;;;26.40;99.90;;;;;;5077767;28;20566;-78
2023/08/18 09:24:50;;;;;;;3.57;2.93;;;26.30;99.90;;;;;;5081136;28;20467;-78
2023/08/18 09:27:20;;;;;;;3.50;2.80;;;26.20;99.90;;;;;;5074295;28;20503;-76
2023/08/18 09:29:47;;;;;;;1.60;1.50;;;26.50;99.90;;;;;;5076828;28;20498;-76
2023/08/18 09:32:14;;;;;;;2.40;2.20;;;27.00;99.80;;;;;;5080616;28;20544;-78
2023/08/18 09:34:44;;;;;;;2.10;2.00;;;27.10;98.90;;;;;;5085572;28;20446;-77
2023/08/18 09:37:11;;;;;;;1.77;1.67;;;27.10;98.30;;;;;;5085486;28;20447;-75
2023/08/18 09:39:38;;;;;;;2.00;1.90;;;26.90;98.90;;;;;;5083240;28;20522;-76
2023/08/18 09:42:07;;;;;;;4.83;2.17;;;26.40;98.00;;;;;;5075495;28;20559;-75
2023/08/18 09:44:36;;;;;;;3.40;3.13;;;26.10;98.70;;;;;;5083351;28;20453;-77
2023/08/18 09:47:05;;;;;;;2.53;2.33;;;26.20;98.80;;;;;;5081141;28;20992;-76
2023/08/18 09:49:36;;;;;;;2.77;2.57;;;26.20;99.30;;;;;;5076408;28;20528;-78
2023/08/18 09:52:05;;;;;;;1.70;1.60;;;26.50;99.90;;;;;;5077678;28;20470;-78
2023/08/18 09:54:35;;;;;;;2.53;1.90;;;26.80;99.60;;;;;;5075269;28;20969;-76
2023/08/18 09:57:08;;;;;;;1.90;1.53;;;27.00;97.80;;;;;;5084835;28;21027;-78
2023/08/18 09:59:42;;;;;;;2.07;1.93;;;26.80;97.40;;;;;;5086512;28;20503;-78
2023/08/18 10:02:14;;;;;;;2.30;2.10;;;26.70;97.90;;;;;;5084962;28;20490;-75
2023/08/18 10:04:43;;;;;;;3.93;1.80;;;26.60;97.50;;;;;;5087954;28;20561;-78
2023/08/18 10:07:11;;;;;;;3.57;3.27;;;26.90;98.30;;;;;;5085090;28;20911;-79
2023/08/18 10:09:40;;;;;;;1.70;1.60;;;27.00;96.90;;;;;;5089160;28;20508;-78
2023/08/18 10:12:08;;;;;;;2.47;1.93;;;27.00;96.80;;;;;;5084698;28;20467;-78
2023/08/18 10:14:37;;;;;;;2.73;2.43;;;27.30;97.30;;;;;;5088647;28;20953;-76
2023/08/18 10:17:06;;;;;;;2.17;2.07;;;27.50;96.90;;;;;;5088503;28;21067;-76
2023/08/18 10:19:51;;;;;;;2.00;1.90;;;27.60;97.70;;;;;;5093472;28;20451;-75
2023/08/18 10:22:19;;;;;;;2.47;2.27;;;27.60;96.60;;;;;;5090348;28;21302;-78
2023/08/18 10:24:47;;;;;;;2.43;2.33;;;27.60;97.90;;;;;;5093907;28;20442;-75
2023/08/18 10:27:15;;;;;;;1.97;1.87;;;27.70;98.80;;;;;;5082536;28;20523;-76
2023/08/18 10:29:46;;;;;;;3.07;2.40;;;28.10;98.80;;;;;;5084117;28;20438;-79
2023/08/18 10:32:13;;;;;;;2.57;1.80;;;28.10;96.80;;;;;;5081823;28;21015;-76
2023/08/18 10:34:40;;;;;;;2.00;1.53;;;28.40;96.30;;;;;;5081264;28;21023;-76
2023/08/18 10:37:10;;;;;;;1.93;1.77;;;28.20;98.90;;;;;;5079060;28;20585;-75
2023/08/18 10:39:40;;;;;;;3.00;2.00;;;28.20;94.30;;;;;;5075664;28;20443;-79
2023/08/18 10:42:13;;;;;;;1.60;1.50;;;28.10;95.20;;;;;;5072743;28;20888;-76
2023/08/18 10:44:57;;;;;;;2.37;2.17;;;28.00;96.60;;;;;;5082022;28;20508;-78
2023/08/18 10:47:31;;;;;;;1.83;1.57;;;27.70;96.20;;;;;;5085926;28;20517;-80
2023/08/18 10:49:59;;;;;;;2.57;2.37;;;27.70;96.30;;;;;;5069242;28;20543;-78
2023/08/18 10:52:28;;;;;;;2.90;2.70;;;28.00;99.50;;;;;;5071040;28;20454;-76
2023/08/18 10:54:55;;;;;;;2.37;2.27;;;27.80;96.10;;;;;;5072952;28;20475;-77
2023/08/18 10:57:22;;;;;;;5.97;2.47;;;27.90;96.20;;;;;;5074703;28;20501;-76
2023/08/18 10:59:51;;;;;;;2.10;1.93;;;28.10;95.00;;;;;;5074598;28;20495;-79
2023/08/18 11:02:18;;;;;;;3.63;2.23;;;28.00;95.50;;;;;;5070575;28;20444;-79
2023/08/18 11:04:45;;;;;;;1.97;1.87;;;27.70;95.40;;;;;;5072420;28;20576;-79
2023/08/18 11:07:12;;;;;;;2.27;2.07;;;28.10;96.40;;;;;;5077010;28;20866;-82
2023/08/18 11:09:39;;;;;;;3.80;2.40;;;28.10;96.80;;;;;;5076580;28;20977;-79
2023/08/18 11:12:06;;;;;;;2.47;2.33;;;28.40;97.50;;;;;;5070512;28;20517;-80
2023/08/18 11:14:33;;;;;;;2.80;2.57;;;28.60;96.40;;;;;;5080429;28;20508;-78
2023/08/18 11:17:02;;;;;;;3.20;2.57;;;28.40;94.40;;;;;;5069946;28;20447;-81
2023/08/18 11:19:29;;;;;;;1.90;1.80;;;28.00;96.50;;;;;;5070736;28;20460;-80
2023/08/18 11:21:57;;;;;;;1.90;1.80;;;27.90;95.60;;;;;;5079368;28;20463;-78
2023/08/18 11:24:25;;;;;;;1.80;1.53;;;28.10;94.20;;;;;;5072138;28;20554;-79
2023/08/18 11:26:52;;;;;;;3.10;2.90;;;28.40;95.70;;;;;;5079478;28;20447;-79
2023/08/18 11:29:19;;;;;;;2.57;1.87;;;28.40;93.30;;;;;;5072851;28;20543;-79
2023/08/18 11:31:46;;;;;;;2.40;2.10;;;28.60;94.50;;;;;;5083888;28;20466;-80
2023/08/18 11:34:16;;;;;;;2.27;2.17;;;28.30;92.40;;;;;;5081793;28;21255;-79
2023/08/18 11:36:44;;;;;;;2.27;2.13;;;28.40;92.60;;;;;;5085252;28;20516;-79
2023/08/18 11:39:12;;;;;;;1.97;1.87;;;28.40;91.80;;;;;;5082010;28;20495;-80
2023/08/18 11:41:40;;;;;;;2.63;2.43;;;28.60;93.20;;;;;;5085042;28;20439;-80
2023/08/18 11:44:08;;;;;;;2.80;2.20;;;28.80;94.10;;;;;;5092922;28;20475;-79
2023/08/18 11:46:36;;;;;;;2.20;1.73;;;28.70;92.60;;;;;;5101198;28;20462;-79
2023/08/18 11:49:04;;;;;;;3.30;2.13;;;28.80;91.60;;;;;;5087855;28;20496;-80
2023/08/18 11:51:32;;;;;;;2.07;1.97;;;28.80;91.40;;;;;;5083224;28;20466;-79
2023/08/18 11:54:12;;;;;;;1.90;1.80;;;28.80;91.00;;;;;;5085720;28;20489;-80
2023/08/18 11:56:39;;;;;;;2.20;2.00;;;28.20;90.20;;;;;;5087101;28;20520;-80
2023/08/18 11:59:06;;;;;;;1.53;1.43;;;28.40;92.80;;;;;;5080451;28;20611;-80
2023/08/18 12:01:34;;;;;;;2.80;2.27;;;28.50;90.30;;;;;;5086759;28;20532;-81
2023/08/18 12:04:03;;;;;;;1.70;1.60;;;28.80;92.10;;;;;;5083880;28;20518;-79
2023/08/18 12:06:30;;;;;;;4.23;1.70;;;29.00;90.70;;;;;;5078103;28;20470;-81
2023/08/18 12:08:58;;;;;;;1.47;1.37;;;29.00;87.50;;;;;;5087102;28;20478;-79
2023/08/18 12:11:25;;;;;;;1.53;1.43;;;29.30;89.50;;;;;;5078698;28;20524;-79
2023/08/18 12:13:52;;;;;;;2.20;2.10;;;29.20;91.40;;;;;;5081616;28;20532;-81
2023/08/18 12:16:20;;;;;;;2.47;1.50;;;29.10;88.80;;;;;;5072490;28;20469;-78
2023/08/18 12:18:47;;;;;;;5.37;1.63;;;29.20;87.30;;;;;;5070211;28;20962;-79
2023/08/18 12:21:14;;;;;;;1.40;1.30;;;29.20;85.50;;;;;;5073424;28;20468;-78
2023/08/18 12:23:40;;;;;;;2.87;1.60;;;29.30;85.30;;;;;;5081271;28;20544;-79
2023/08/18 12:26:10;;;;;;;3.60;2.77;;;29.40;88.30;;;;;;5078114;28;20472;-78
2023/08/18 12:28:38;;;;;;;4.80;1.50;;;29.10;82.60;;;;;;5080614;28;20479;-78
2023/08/18 12:31:05;;;;;;;1.60;1.50;;;29.20;85.30;;;;;;5083722;28;20491;-79
2023/08/18 12:33:32;;;;;;;2.20;2.10;;;29.00;82.50;;;;;;5079935;28;20512;-81
2023/08/18 12:35:59;;;;;;;2.60;2.30;;;29.00;81.70;;;;;;5082335;28;20815;-81
2023/08/18 12:38:26;;;;;;;1.70;1.53;;;29.30;80.70;;;;;;5078511;28;20468;-78
2023/08/18 12:40:53;;;;;;;2.30;2.20;;;29.30;89.10;;;;;;5071401;28;21157;-80
2023/08/18 12:43:21;;;;;;;2.10;2.00;;;29.30;83.20;;;;;;5081379;28;20588;-81
2023/08/18 12:45:48;;;;;;;1.77;1.67;;;29.10;84.90;;;;;;5078995;28;20927;-78
2023/08/18 12:48:16;;;;;;;2.73;1.00;;;29.30;90.60;;;;;;5082982;28;20469;-78
2023/08/18 12:50:43;;;;;;;1.60;1.50;;;29.40;89.10;;;;;;5077625;28;20479;-81